Time;durP1;ratioP1;P1;durP2;ratioP2;P2;SDS_P1;SDS_P2;PMS_P1;PMS_P2;Temp;Humidity;BMP_temperature;BMP_pressure;BME280_temperature;BME280_humidity;BME280_pressure;Samples;Min_cycle;Max_cycle;Signal;HPM_P1;HPM_P2
2021/08/03 00:01:05;;;;;;;3.85;1.95;;;;;;;18.03;69.52;99202.19;130515;1089;22548;-58
2021/08/03 00:03:39;;;;;;;4.18;2.00;;;;;;;17.99;69.71;99202.81;130319;1088;114296;-57
2021/08/03 00:06:30;;;;;;;3.58;2.40;;;;;;;17.97;69.76;99204.25;130494;1090;23004;-57
2021/08/03 00:10:20;;;;;;;3.13;2.23;;;;;;;17.92;69.79;99207.94;125629;1093;22798;-60
2021/08/03 00:12:50;;;;;;;2.63;1.85;;;;;;;17.91;69.85;99211.00;125461;1093;22799;-60
2021/08/03 00:15:22;;;;;;;7.45;2.30;;;;;;;17.89;69.94;99213.29;129897;1093;113506;-58
2021/08/03 00:17:53;;;;;;;7.18;2.30;;;;;;;17.86;70.12;99209.21;129846;1092;23551;-57
2021/08/03 00:20:29;;;;;;;3.10;1.98;;;;;;;17.84;69.97;99216.97;129861;1093;22520;-58
2021/08/03 00:23:00;;;;;;;4.40;2.13;;;;;;;17.81;70.12;99212.08;129757;1092;113349;-58
2021/08/03 00:25:29;;;;;;;4.40;2.05;;;;;;;17.81;70.15;99214.02;129997;1093;22519;-58
2021/08/03 00:27:58;;;;;;;3.28;1.60;;;;;;;17.76;70.07;99212.20;129842;1093;113622;-57
2021/08/03 00:30:27;;;;;;;2.00;1.80;;;;;;;17.73;70.06;99204.58;129989;1092;23229;-57
2021/08/03 00:32:55;;;;;;;3.55;1.75;;;;;;;17.71;70.14;99209.58;129983;1092;22661;-60
2021/08/03 00:35:24;;;;;;;2.05;1.80;;;;;;;17.68;70.41;99212.95;129730;1093;113540;-57
2021/08/03 00:37:53;;;;;;;1.98;1.78;;;;;;;17.64;70.35;99209.19;129955;1093;23171;-57
2021/08/03 00:40:22;;;;;;;4.33;2.03;;;;;;;17.61;70.30;99210.59;129686;1093;115183;-62
2021/08/03 00:42:53;;;;;;;3.50;2.20;;;;;;;17.59;70.66;99201.84;129792;1093;22524;-62
2021/08/03 00:45:22;;;;;;;3.18;2.28;;;;;;;17.58;70.70;99199.40;129715;1093;115103;-62
2021/08/03 00:47:57;;;;;;;5.13;2.60;;;;;;;17.56;70.63;99205.22;129812;1093;22988;-62
2021/08/03 00:50:25;;;;;;;5.10;2.23;;;;;;;17.56;70.58;99204.41;129971;1093;23133;-62
2021/08/03 00:52:56;;;;;;;2.68;1.98;;;;;;;17.54;70.71;99204.71;129749;1093;113755;-61
2021/08/03 00:55:26;;;;;;;9.10;2.13;;;;;;;17.52;70.64;99206.95;129954;1092;23444;-62
2021/08/03 00:57:55;;;;;;;3.80;2.00;;;;;;;17.53;70.90;99216.03;129745;1093;113666;-62
2021/08/03 01:00:24;;;;;;;2.25;2.00;;;;;;;17.50;70.70;99222.98;129813;1093;22823;-62
2021/08/03 01:02:54;;;;;;;4.15;1.78;;;;;;;17.47;70.77;99231.04;129879;1093;22517;-62
2021/08/03 01:05:23;;;;;;;2.00;1.78;;;;;;;17.42;70.97;99226.48;129699;1092;113552;-63
2021/08/03 01:08:17;;;;;;;2.88;1.75;;;;;;;17.37;70.96;99232.09;129813;1093;22564;-62
2021/08/03 01:10:52;;;;;;;2.28;1.68;;;;;;;17.30;71.08;99232.53;129668;1093;114220;-62
2021/08/03 01:13:50;;;;;;;3.00;2.13;;;;;;;17.25;70.97;99234.58;129806;1092;23168;-63
2021/08/03 01:16:33;;;;;;;6.43;2.70;;;;;;;17.20;71.38;99237.43;129219;1097;114299;-62
2021/08/03 01:19:13;;;;;;;4.63;2.38;;;;;;;17.14;71.61;99246.94;129357;1096;22860;-63
2021/08/03 01:21:45;;;;;;;4.25;2.38;;;;;;;17.09;71.81;99256.11;129236;1095;114280;-62
2021/08/03 01:24:40;;;;;;;3.15;2.30;;;;;;;17.05;71.94;99248.77;129359;1096;22730;-63
2021/08/03 01:27:30;;;;;;;5.43;2.13;;;;;;;17.00;72.13;99243.38;129358;1096;22580;-63
2021/08/03 01:29:59;;;;;;;2.78;2.38;;;;;;;16.95;72.21;99250.61;129343;1095;23017;-63
2021/08/03 01:32:30;;;;;;;4.35;2.25;;;;;;;16.91;72.38;99252.34;129361;1097;23676;-63
2021/08/03 01:35:00;;;;;;;5.00;2.30;;;;;;;16.89;72.39;99256.52;129260;1095;114108;-63
2021/08/03 01:37:31;;;;;;;5.45;2.33;;;;;;;16.86;72.54;99260.72;129382;1096;22565;-63
2021/08/03 01:40:06;;;;;;;2.85;2.10;;;;;;;16.85;72.63;99269.27;129221;1097;113740;-58
2021/08/03 01:42:39;;;;;;;5.98;2.83;;;;;;;16.84;72.63;99264.89;129355;1096;22600;-59
2021/08/03 01:45:10;;;;;;;2.48;2.00;;;;;;;16.82;72.58;99267.13;129318;1096;22584;-58
2021/08/03 01:47:40;;;;;;;8.53;2.35;;;;;;;16.80;72.60;99267.42;129222;1097;113652;-58
2021/08/03 01:50:10;;;;;;;2.73;2.10;;;;;;;16.78;72.88;99271.60;129356;1097;23226;-58
2021/08/03 01:52:41;;;;;;;4.95;2.33;;;;;;;16.77;72.71;99269.97;129190;1096;113878;-59
2021/08/03 01:55:17;;;;;;;3.23;2.07;;;;;;;16.76;72.96;99271.09;129775;1092;22545;-58
2021/08/03 01:57:46;;;;;;;4.23;2.35;;;;;;;16.74;72.95;99271.39;129736;1093;113962;-58
2021/08/03 02:00:23;;;;;;;2.58;2.30;;;;;;;16.74;73.08;99270.56;129792;1093;22623;-58
2021/08/03 02:03:02;;;;;;;3.78;2.38;;;;;;;16.73;73.01;99282.72;129800;1093;22557;-58
2021/08/03 02:05:32;;;;;;;2.38;2.18;;;;;;;16.70;73.07;99286.89;129652;1093;113831;-58
2021/08/03 02:08:06;;;;;;;4.58;2.20;;;;;;;16.66;73.21;99290.55;129776;1093;22665;-59
2021/08/03 02:10:38;;;;;;;7.90;2.48;;;;;;;16.59;73.12;99293.67;129666;1093;114233;-58
2021/08/03 02:13:07;;;;;;;3.90;2.60;;;;;;;16.47;73.38;99282.32;129826;1093;22594;-58
2021/08/03 02:15:37;;;;;;;7.05;2.48;;;;;;;16.46;73.50;99289.75;129790;1092;23080;-58
2021/08/03 02:18:07;;;;;;;9.43;3.08;;;;;;;16.40;73.57;99290.16;129692;1093;113427;-58
2021/08/03 02:20:43;;;;;;;5.25;3.00;;;;;;;16.34;73.90;99296.86;129803;1093;22533;-57
2021/08/03 02:23:15;;;;;;;6.20;3.28;;;;;;;16.27;74.15;99291.77;129687;1092;114027;-58
2021/08/03 02:25:49;;;;;;;8.50;2.95;;;;;;;16.19;74.25;99293.25;129774;1092;22640;-58
2021/08/03 02:28:18;;;;;;;5.80;3.53;;;;;;;16.13;74.48;99296.40;129756;1093;113582;-58
2021/08/03 02:30:48;;;;;;;10.45;3.15;;;;;;;16.07;74.72;99290.16;129893;1093;22541;-57
2021/08/03 02:33:23;;;;;;;11.93;3.85;;;;;;;16.02;75.08;99294.91;129792;1093;22562;-58
2021/08/03 02:35:56;;;;;;;9.08;3.68;;;;;;;15.97;75.14;99295.01;129652;1093;113681;-58
2021/08/03 02:38:26;;;;;;;4.48;2.83;;;;;;;15.90;75.44;99304.43;129792;1093;22579;-58
2021/08/03 02:40:55;;;;;;;6.70;3.15;;;;;;;15.88;75.59;99303.91;129659;1093;114657;-65
2021/08/03 02:43:33;;;;;;;6.83;3.35;;;;;;;15.86;75.75;99311.66;129806;1093;22551;-65
2021/08/03 02:46:03;;;;;;;4.20;3.00;;;;;;;15.85;75.60;99312.77;129685;1093;114135;-65
2021/08/03 02:48:33;;;;;;;5.05;2.88;;;;;;;15.85;75.89;99312.77;129784;1093;23162;-64
2021/08/03 02:51:02;;;;;;;3.50;2.63;;;;;;;15.85;75.90;99312.77;129786;1093;22547;-65
2021/08/03 02:53:59;;;;;;;3.38;2.90;;;;;;;15.88;76.18;99314.08;129686;1093;113746;-64
2021/08/03 02:56:28;;;;;;;5.83;3.08;;;;;;;15.90;76.02;99318.17;129833;1093;22580;-65
2021/08/03 02:59:01;;;;;;;6.58;2.78;;;;;;;15.94;76.12;99320.33;129688;1093;114588;-64
2021/08/03 03:01:32;;;;;;;4.33;2.83;;;;;;;15.96;76.19;99321.67;129783;1092;22600;-64
2021/08/03 03:04:20;;;;;;;6.75;2.98;;;;;;;15.99;76.06;99321.08;129666;1093;114054;-65
2021/08/03 03:06:52;;;;;;;2.95;2.53;;;;;;;16.02;76.30;99325.95;129817;1093;22548;-64
2021/08/03 03:09:22;;;;;;;3.35;2.78;;;;;;;16.05;76.22;99325.36;129817;1093;22626;-65
2021/08/03 03:11:52;;;;;;;4.95;3.05;;;;;;;16.08;76.15;99322.02;129692;1092;114067;-65
2021/08/03 03:14:22;;;;;;;6.73;3.38;;;;;;;16.12;76.20;99330.50;129736;1093;22657;-64
2021/08/03 03:16:57;;;;;;;4.75;2.93;;;;;;;16.16;76.12;99332.33;129646;1093;113709;-65
2021/08/03 03:19:27;;;;;;;3.43;2.93;;;;;;;16.20;75.94;99329.80;129768;1093;22573;-65
2021/08/03 03:21:56;;;;;;;5.75;3.63;;;;;;;16.25;75.92;99335.23;129661;1093;114035;-65
2021/08/03 03:24:25;;;;;;;4.30;2.98;;;;;;;16.29;75.88;99333.52;129765;1093;22551;-65
2021/08/03 03:26:55;;;;;;;4.13;3.30;;;;;;;16.33;75.80;99331.78;129787;1093;22562;-65
2021/08/03 03:29:24;;;;;;;5.48;3.60;;;;;;;16.30;75.74;99329.66;129631;1093;114633;-65
2021/08/03 03:31:54;;;;;;;4.98;3.18;;;;;;;16.40;75.56;99337.73;130073;1090;22904;-64
2021/08/03 03:34:24;;;;;;;6.28;4.55;;;;;;;16.48;75.52;99344.45;129968;1090;113956;-65
2021/08/03 03:36:55;;;;;;;8.80;3.85;;;;;;;16.55;75.47;99353.16;130058;1088;23197;-64
2021/08/03 03:39:24;;;;;;;7.35;3.63;;;;;;;16.60;75.06;99359.36;129520;1093;22779;-64
2021/08/03 03:41:57;;;;;;;5.85;3.60;;;;;;;16.66;75.21;99353.81;125395;1093;114115;-64
2021/08/03 03:44:26;;;;;;;6.75;3.20;;;;;;;16.70;74.88;99358.42;129876;1093;22569;-64
2021/08/03 03:47:01;;;;;;;4.03;3.35;;;;;;;16.76;74.88;99359.95;129942;1093;114171;-64
2021/08/03 03:49:36;;;;;;;5.60;3.35;;;;;;;16.82;74.72;99364.25;130084;1093;23129;-65
2021/08/03 03:52:06;;;;;;;7.50;3.53;;;;;;;16.89;74.45;99364.66;129896;1093;114039;-65
2021/08/03 03:54:44;;;;;;;8.05;4.25;;;;;;;16.95;74.13;99365.39;130037;1093;22575;-65
2021/08/03 03:57:14;;;;;;;8.03;3.38;;;;;;;17.02;74.20;99359.50;130076;1093;22670;-64
2021/08/03 03:59:45;;;;;;;8.88;3.80;;;;;;;17.09;73.89;99366.22;129916;1093;114758;-64
2021/08/03 04:02:16;;;;;;;5.23;4.13;;;;;;;17.17;73.74;99365.50;130041;1093;22556;-64
2021/08/03 04:04:51;;;;;;;7.20;3.93;;;;;;;17.25;73.65;99370.31;129974;1092;113859;-64
2021/08/03 04:07:20;;;;;;;6.88;4.18;;;;;;;17.34;73.27;99364.90;130073;1093;23139;-65
2021/08/03 04:09:50;;;;;;;5.80;3.83;;;;;;;17.40;73.16;99358.17;129981;1090;113744;-64
2021/08/03 04:12:20;;;;;;;9.15;3.23;;;;;;;17.50;72.94;99368.16;130088;1090;23361;-64
2021/08/03 04:15:09;;;;;;;8.53;3.70;;;;;;;17.59;72.75;99375.41;130089;1089;22759;-63
2021/08/03 04:17:43;;;;;;;5.45;3.48;;;;;;;17.67;72.54;99368.38;130029;1090;113707;-64
2021/08/03 04:20:14;;;;;;;11.70;4.00;;;;;;;17.73;72.38;99369.91;130108;1090;22631;-64
2021/08/03 04:22:43;;;;;;;6.65;3.75;;;;;;;17.80;72.00;99370.30;129993;1093;113574;-65
2021/08/03 04:25:12;;;;;;;8.05;3.68;;;;;;;17.88;72.00;99377.03;129992;1092;24115;-64
2021/08/03 04:27:41;;;;;;;8.13;3.98;;;;;;;17.94;71.77;99370.27;130043;1093;22619;-64
2021/08/03 04:30:12;;;;;;;8.45;3.93;;;;;;;18.00;71.55;99361.58;129959;1092;113697;-64
2021/08/03 04:32:41;;;;;;;9.38;3.65;;;;;;;18.07;71.52;99374.92;130060;1091;22604;-64
2021/08/03 04:35:11;;;;;;;24.20;4.70;;;;;;;18.14;71.15;99372.56;129925;1093;114040;-65
2021/08/03 04:37:41;;;;;;;7.10;3.83;;;;;;;18.22;70.99;99374.56;130069;1093;23464;-64
2021/08/03 04:40:18;;;;;;;5.05;3.60;;;;;;;18.28;70.98;99376.09;127636;1092;114369;-64
2021/08/03 04:42:47;;;;;;;7.30;4.40;;;;;;;18.36;70.23;99380.03;125473;1093;22924;-64
2021/08/03 04:45:16;;;;;;;9.18;4.08;;;;;;;18.42;70.39;99375.22;125482;1092;22835;-64
2021/08/03 04:47:46;;;;;;;15.80;4.20;;;;;;;18.46;69.99;99377.05;125345;1092;114001;-63
2021/08/03 04:50:17;;;;;;;4.53;3.98;;;;;;;18.52;70.06;99378.53;130081;1093;22654;-65
2021/08/03 04:52:46;;;;;;;7.15;4.55;;;;;;;18.59;69.98;99373.44;129944;1093;114119;-64
2021/08/03 04:55:15;;;;;;;6.45;4.18;;;;;;;18.70;69.61;99383.08;130131;1090;22557;-64
2021/08/03 04:57:44;;;;;;;6.08;3.85;;;;;;;18.86;69.45;99379.92;130129;1090;22547;-64
2021/08/03 05:00:14;;;;;;;5.65;4.40;;;;;;;19.03;68.71;99393.83;130024;1090;112908;-65
2021/08/03 05:02:44;;;;;;;6.40;4.00;;;;;;;19.18;68.30;99385.14;130126;1090;22518;-65
2021/08/03 05:05:14;;;;;;;8.15;3.80;;;;;;;19.31;67.95;99386.98;130016;1089;113776;-65
2021/08/03 05:07:57;;;;;;;7.00;4.03;;;;;;;19.44;67.55;99376.95;130152;1090;23130;-65
2021/08/03 05:10:27;;;;;;;8.03;4.80;;;;;;;19.61;67.10;99379.80;130033;1090;114371;-65
2021/08/03 05:12:56;;;;;;;10.88;4.90;;;;;;;19.77;66.41;99377.37;130114;1090;22538;-65
2021/08/03 05:15:27;;;;;;;10.30;4.90;;;;;;;20.03;65.96;99369.95;130179;1090;22546;-65
2021/08/03 05:17:56;;;;;;;7.30;4.70;;;;;;;20.39;65.47;99371.59;129995;1090;114128;-64
2021/08/03 05:20:25;;;;;;;5.35;4.40;;;;;;;20.78;63.87;99367.78;130091;1089;23591;-64
2021/08/03 05:22:54;;;;;;;6.55;4.20;;;;;;;21.19;63.16;99367.23;130023;1090;113870;-65
2021/08/03 05:25:23;;;;;;;8.80;4.40;;;;;;;21.61;61.99;99368.17;130144;1089;22536;-65
2021/08/03 05:27:52;;;;;;;24.70;5.25;;;;;;;22.00;61.12;99372.52;129995;1090;114039;-64
2021/08/03 05:30:21;;;;;;;14.03;5.43;;;;;;;22.43;59.49;99376.91;130134;1089;22572;-66
2021/08/03 05:32:50;;;;;;;21.08;6.38;;;;;;;22.80;58.69;99375.09;130116;1089;23093;-65
2021/08/03 05:35:19;;;;;;;17.95;6.15;;;;;;;23.19;57.14;99382.05;130060;1090;113929;-65
2021/08/03 05:37:48;;;;;;;25.45;6.70;;;;;;;23.56;56.58;99380.93;130135;1090;22555;-65
2021/08/03 05:40:20;;;;;;;10.43;4.98;;;;;;;23.84;55.22;99367.12;130003;1090;114646;-69
2021/08/03 05:42:48;;;;;;;10.15;5.05;;;;;;;24.18;53.94;99374.14;130132;1090;22558;-69
2021/08/03 05:45:18;;;;;;;9.58;5.00;;;;;;;24.45;53.65;99374.54;130148;1089;23546;-68
2021/08/03 05:47:46;;;;;;;14.85;5.75;;;;;;;24.73;52.62;99375.34;129987;1089;116974;-69
2021/08/03 05:50:15;;;;;;;6.10;3.83;;;;;;;25.00;51.44;99379.30;130130;1088;22536;-69
2021/08/03 05:52:44;;;;;;;5.93;4.10;;;;;;;25.24;50.62;99376.38;130018;1089;114231;-69
2021/08/03 05:55:14;;;;;;;9.25;3.75;;;;;;;25.43;50.44;99384.00;130148;1088;23459;-70
2021/08/03 05:57:42;;;;;;;9.45;5.10;;;;;;;25.54;49.00;99381.47;130121;1089;22569;-69
2021/08/03 06:00:12;;;;;;;10.65;5.28;;;;;;;25.51;48.92;99385.81;130025;1090;113709;-69
2021/08/03 06:02:41;;;;;;;7.05;3.43;;;;;;;25.45;48.81;99392.02;130114;1090;22654;-69
2021/08/03 06:05:11;;;;;;;7.63;3.90;;;;;;;25.24;48.83;99389.50;130042;1090;113952;-69
2021/08/03 06:07:48;;;;;;;24.75;6.03;;;;;;;25.06;50.08;99391.81;130154;1090;23103;-68
2021/08/03 06:10:16;;;;;;;5.88;3.23;;;;;;;24.96;50.34;99398.70;130015;1090;114157;-69
2021/08/03 06:12:49;;;;;;;7.75;4.43;;;;;;;24.86;50.14;99403.96;130123;1090;22619;-69
2021/08/03 06:15:18;;;;;;;4.43;4.03;;;;;;;24.66;50.31;99414.98;130178;1090;22560;-69
2021/08/03 06:17:51;;;;;;;5.68;3.58;;;;;;;24.38;50.54;99410.55;130031;1090;113926;-69
2021/08/03 06:20:19;;;;;;;8.25;4.10;;;;;;;24.15;51.99;99411.02;130079;1090;22570;-70
2021/08/03 06:22:48;;;;;;;9.53;4.13;;;;;;;24.05;51.76;99419.05;130009;1090;114013;-69
2021/08/03 06:25:17;;;;;;;4.68;3.40;;;;;;;23.94;50.82;99421.51;130081;1090;23518;-70
2021/08/03 06:27:46;;;;;;;3.90;3.13;;;;;;;23.75;50.47;99421.27;130159;1089;22960;-68
2021/08/03 06:30:15;;;;;;;7.78;3.78;;;;;;;23.48;51.10;99423.55;129987;1090;113601;-69
2021/08/03 06:32:44;;;;;;;4.75;3.60;;;;;;;23.38;52.29;99425.95;130136;1090;22553;-69
2021/08/03 06:35:15;;;;;;;26.98;4.60;;;;;;;23.32;52.73;99425.38;129984;1090;113884;-69
2021/08/03 06:37:43;;;;;;;6.43;3.57;;;;;;;23.26;52.72;99430.34;130126;1090;22545;-70
2021/08/03 06:40:12;;;;;;;11.00;4.05;;;;;;;23.23;52.95;99432.98;130055;1089;113924;-69
2021/08/03 06:42:53;;;;;;;15.75;4.18;;;;;;;23.21;52.93;99430.58;130141;1090;23344;-68
2021/08/03 06:45:29;;;;;;;7.48;3.65;;;;;;;23.16;52.33;99441.09;130133;1090;22976;-69
2021/08/03 06:48:13;;;;;;;6.20;4.75;;;;;;;23.12;53.16;99431.81;130013;1090;113798;-69
2021/08/03 06:50:48;;;;;;;11.68;4.28;;;;;;;23.13;53.05;99433.44;130075;1090;22580;-69
2021/08/03 06:53:16;;;;;;;6.78;4.98;;;;;;;23.12;52.54;99431.81;130032;1090;114136;-69
2021/08/03 06:55:46;;;;;;;10.70;3.85;;;;;;;23.11;53.01;99442.12;130128;1089;22604;-70
2021/08/03 06:58:50;;;;;;;7.00;3.98;;;;;;;23.08;52.99;99442.02;129985;1090;113975;-69
2021/08/03 07:01:44;;;;;;;5.70;3.20;;;;;;;23.02;53.47;99446.96;129834;1092;23433;-71
2021/08/03 07:04:23;;;;;;;4.50;3.20;;;;;;;22.97;53.26;99438.02;129669;1093;114102;-69
2021/08/03 07:06:55;;;;;;;13.78;3.75;;;;;;;22.94;53.30;99441.50;129750;1092;22673;-69
2021/08/03 07:09:25;;;;;;;3.28;2.90;;;;;;;22.97;53.01;99443.58;129764;1093;22620;-69
2021/08/03 07:11:54;;;;;;;6.40;3.18;;;;;;;23.02;52.52;99446.15;129665;1093;114243;-69
2021/08/03 07:14:25;;;;;;;6.00;3.38;;;;;;;23.07;52.13;99443.98;129756;1093;22571;-69
2021/08/03 07:16:55;;;;;;;4.20;2.73;;;;;;;23.09;52.66;99440.83;129693;1092;115072;-71
2021/08/03 07:19:24;;;;;;;3.65;2.98;;;;;;;23.10;53.34;99445.23;129795;1092;22536;-69
2021/08/03 07:21:53;;;;;;;4.05;3.08;;;;;;;23.12;52.72;99443.74;129743;1093;22561;-69
2021/08/03 07:24:22;;;;;;;6.08;4.10;;;;;;;23.14;52.28;99446.18;129696;1093;113629;-69
2021/08/03 07:26:51;;;;;;;9.98;3.95;;;;;;;23.14;51.64;99446.99;129810;1093;23599;-69
2021/08/03 07:29:20;;;;;;;2.68;2.43;;;;;;;23.13;51.82;99447.33;129628;1093;114069;-69
2021/08/03 07:31:49;;;;;;;4.63;2.75;;;;;;;23.09;50.39;99449.17;129782;1092;22645;-69
2021/08/03 07:34:18;;;;;;;5.60;3.20;;;;;;;23.04;51.79;99449.41;129679;1092;114296;-69
2021/08/03 07:37:00;;;;;;;35.18;5.60;;;;;;;23.03;52.59;99445.00;129774;1093;22568;-70
2021/08/03 07:39:29;;;;;;;8.23;3.25;;;;;;;23.06;52.52;99445.13;129300;1089;25727;-65
2021/08/03 07:41:58;;;;;;;9.73;3.38;;;;;;;23.12;52.26;99440.96;125318;1089;113891;-65
2021/08/03 07:44:27;;;;;;;20.50;3.90;;;;;;;23.15;52.45;99442.25;130135;1090;23306;-66
2021/08/03 07:46:56;;;;;;;3.90;3.20;;;;;;;23.14;52.32;99438.66;130024;1090;114521;-66
2021/08/03 07:49:25;;;;;;;6.18;3.68;;;;;;;23.21;52.37;99440.89;130119;1090;22618;-65
2021/08/03 07:51:54;;;;;;;7.58;3.50;;;;;;;23.24;52.45;99448.52;130133;1089;22516;-65
2021/08/03 07:54:23;;;;;;;5.20;2.78;;;;;;;23.30;52.50;99446.34;129986;1090;114053;-65
2021/08/03 07:56:52;;;;;;;2.95;2.55;;;;;;;23.35;51.36;99446.94;130167;1090;22569;-65
2021/08/03 07:59:20;;;;;;;4.20;2.68;;;;;;;23.37;51.67;99444.63;130024;1090;114206;-66
2021/08/03 08:01:50;;;;;;;18.60;3.60;;;;;;;23.39;51.59;99447.85;130157;1090;22612;-66
2021/08/03 08:04:19;;;;;;;3.70;2.58;;;;;;;23.39;50.27;99447.04;130015;1090;114007;-65
2021/08/03 08:06:48;;;;;;;6.80;2.93;;;;;;;23.32;49.77;99447.63;130142;1090;23405;-65
2021/08/03 08:09:19;;;;;;;5.28;2.70;;;;;;;23.24;49.93;99442.95;130136;1090;22560;-65
2021/08/03 08:11:47;;;;;;;7.45;2.98;;;;;;;23.23;51.27;99444.11;130045;1090;114187;-65
2021/08/03 08:14:16;;;;;;;4.18;2.90;;;;;;;23.22;50.68;99445.30;130072;1090;23389;-66
2021/08/03 08:16:45;;;;;;;3.55;3.25;;;;;;;23.19;50.74;99435.67;130046;1090;114328;-66
2021/08/03 08:19:14;;;;;;;4.20;2.70;;;;;;;23.20;51.77;99440.08;130129;1089;22639;-65
2021/08/03 08:21:43;;;;;;;3.03;2.50;;;;;;;23.23;50.86;99438.55;130139;1089;22531;-65
2021/08/03 08:24:12;;;;;;;5.18;3.10;;;;;;;23.23;49.55;99444.11;130021;1090;114002;-66
2021/08/03 08:26:42;;;;;;;4.70;2.60;;;;;;;23.19;51.44;99435.67;130133;1088;22534;-66
2021/08/03 08:29:11;;;;;;;4.00;3.20;;;;;;;23.21;52.08;99438.92;129988;1089;114057;-66
2021/08/03 08:31:40;;;;;;;8.55;3.78;;;;;;;23.24;51.37;99435.42;130134;1089;22557;-66
2021/08/03 08:34:10;;;;;;;5.15;2.60;;;;;;;23.29;50.75;99437.19;130026;1090;114003;-66
2021/08/03 08:36:39;;;;;;;5.08;2.60;;;;;;;23.36;49.82;99431.88;130135;1090;22530;-66
2021/08/03 08:39:08;;;;;;;7.45;2.73;;;;;;;23.41;49.35;99441.95;130124;1090;23312;-65
2021/08/03 08:41:38;;;;;;;11.20;2.93;;;;;;;23.41;49.72;99431.64;130029;1088;113753;-66
2021/08/03 08:44:08;;;;;;;2.65;2.40;;;;;;;23.46;50.18;99436.17;130133;1090;22584;-66
2021/08/03 08:46:37;;;;;;;2.80;2.60;;;;;;;23.51;49.34;99427.65;130020;1090;114707;-66
2021/08/03 08:49:06;;;;;;;4.23;2.70;;;;;;;23.55;49.29;99434.13;130154;1090;23180;-65
2021/08/03 08:51:36;;;;;;;4.45;2.95;;;;;;;23.58;49.86;99434.25;130103;1090;23829;-65
2021/08/03 08:54:05;;;;;;;4.68;3.05;;;;;;;23.65;49.66;99424.53;129954;1089;114668;-66
2021/08/03 08:56:34;;;;;;;4.18;3.35;;;;;;;23.70;50.27;99421.49;130124;1090;22599;-65
2021/08/03 08:59:03;;;;;;;3.55;2.60;;;;;;;23.76;49.79;99420.12;130031;1089;113909;-66
2021/08/03 09:01:32;;;;;;;11.08;3.85;;;;;;;23.79;49.32;99428.59;130071;1089;22608;-66
2021/08/03 09:04:05;;;;;;;3.83;2.43;;;;;;;23.85;48.36;99424.39;130056;1090;114570;-64
2021/08/03 09:06:35;;;;;;;4.88;2.48;;;;;;;23.87;48.97;99427.64;130142;1088;23732;-66
2021/08/03 09:09:14;;;;;;;2.95;2.60;;;;;;;23.89;48.64;99421.73;130073;1090;22680;-65
2021/08/03 09:11:58;;;;;;;4.18;2.50;;;;;;;23.86;47.91;99416.86;130069;1088;114006;-66
2021/08/03 09:14:37;;;;;;;2.90;2.65;;;;;;;23.85;48.15;99412.45;130032;1090;23342;-65
2021/08/03 09:17:07;;;;;;;3.68;2.83;;;;;;;23.85;48.10;99418.83;130049;1090;113954;-66
2021/08/03 09:19:41;;;;;;;6.58;3.53;;;;;;;23.85;48.08;99410.48;130116;1090;22510;-65
2021/08/03 09:22:23;;;;;;;4.15;2.40;;;;;;;23.86;48.40;99414.89;129996;1090;115346;-65
2021/08/03 09:25:13;;;;;;;5.35;2.60;;;;;;;23.89;49.25;99407.82;130141;1090;22617;-65
2021/08/03 09:27:44;;;;;;;5.53;2.70;;;;;;;23.96;49.31;99408.02;130102;1090;23737;-66
2021/08/03 09:30:19;;;;;;;10.20;3.05;;;;;;;24.05;49.56;99394.00;130034;1090;113863;-65
2021/08/03 09:32:48;;;;;;;3.05;2.65;;;;;;;24.14;49.54;99394.67;130100;1090;22541;-66
2021/08/03 09:35:19;;;;;;;4.13;2.53;;;;;;;24.22;49.00;99388.98;130015;1089;113647;-66
2021/08/03 09:37:48;;;;;;;3.45;2.73;;;;;;;24.28;48.64;99395.13;130079;1090;22526;-65
2021/08/03 09:40:25;;;;;;;3.90;2.88;;;;;;;24.28;47.32;99395.13;130028;1089;113643;-66
2021/08/03 09:43:09;;;;;;;5.35;2.50;;;;;;;24.20;47.15;99388.52;130151;1088;22597;-66
2021/08/03 09:45:44;;;;;;;7.95;2.90;;;;;;;24.10;47.49;99388.98;130137;1090;22770;-65
2021/08/03 09:48:14;;;;;;;5.75;3.40;;;;;;;24.06;48.16;99390.05;130008;1090;113827;-66
2021/08/03 09:51:01;;;;;;;7.05;2.45;;;;;;;24.01;47.52;99384.72;130155;1090;22572;-66
2021/08/03 09:53:53;;;;;;;8.45;2.78;;;;;;;23.93;46.61;99389.27;130056;1089;113775;-66
2021/08/03 09:56:25;;;;;;;6.13;2.53;;;;;;;23.87;46.04;99379.52;130143;1090;22651;-66
2021/08/03 09:58:55;;;;;;;4.03;2.13;;;;;;;23.87;47.14;99376.73;130020;1089;113890;-66
2021/08/03 10:01:42;;;;;;;2.85;2.50;;;;;;;23.92;47.53;99368.98;130173;1089;23496;-66
2021/08/03 10:04:12;;;;;;;;;;;;;;;24.02;46.75;99378.80;130069;1090;113911;-65
2021/08/03 10:06:51;;;;;;;4.60;3.15;;;;;;;24.10;46.95;99372.28;130141;1090;21238;-66
2021/08/03 10:09:21;;;;;;;6.30;2.95;;;;;;;24.17;46.96;99374.48;130087;1090;22565;-66
2021/08/03 10:11:54;;;;;;;5.73;3.55;;;;;;;24.24;47.00;99378.31;130011;1089;113668;-66
2021/08/03 10:14:26;;;;;;;3.33;2.38;;;;;;;24.30;46.50;99379.70;130139;1090;23831;-66
2021/08/03 10:16:55;;;;;;;7.45;2.70;;;;;;;24.36;45.62;99373.89;130015;1090;113800;-66
2021/08/03 10:19:26;;;;;;;4.48;2.53;;;;;;;24.36;45.47;99371.10;130150;1089;23455;-66
2021/08/03 10:22:18;;;;;;;8.15;3.60;;;;;;;24.35;46.39;99377.83;130089;1090;22537;-66
2021/08/03 10:24:58;;;;;;;5.30;3.43;;;;;;;24.38;46.97;99377.13;130127;1089;22628;-66
2021/08/03 10:27:46;;;;;;;7.70;3.03;;;;;;;24.42;46.14;99372.45;130091;1090;22639;-66
2021/08/03 10:30:27;;;;;;;4.70;2.55;;;;;;;24.46;45.46;99374.19;129981;1089;114213;-66
2021/08/03 10:33:06;;;;;;;22.05;4.15;;;;;;;24.48;45.04;99374.66;130079;1090;22587;-65
2021/08/03 10:35:39;;;;;;;8.23;4.78;;;;;;;24.48;45.78;99374.66;130010;1090;114812;-66
2021/08/03 10:38:12;;;;;;;7.50;3.48;;;;;;;24.50;45.73;99361.19;130108;1090;22618;-66
2021/08/03 10:40:44;;;;;;;5.55;2.80;;;;;;;24.49;45.72;99369.89;129992;1090;114083;-66
2021/08/03 10:43:24;;;;;;;11.80;3.28;;;;;;;24.47;46.69;99369.43;130100;1090;22622;-66
2021/08/03 10:46:08;;;;;;;7.73;2.88;;;;;;;24.46;47.05;99370.59;130125;1090;23082;-66
2021/08/03 10:48:37;;;;;;;3.70;2.70;;;;;;;24.44;45.80;99379.30;130010;1089;113830;-65
2021/08/03 10:51:12;;;;;;;5.10;2.75;;;;;;;24.42;46.32;99370.48;130093;1090;23513;-66
2021/08/03 10:54:07;;;;;;;2.60;2.13;;;;;;;24.41;46.40;99377.22;129986;1090;114340;-66
2021/08/03 10:56:52;;;;;;;3.35;2.28;;;;;;;24.44;46.58;99364.56;130152;1089;22566;-66
2021/08/03 10:59:33;;;;;;;3.85;2.83;;;;;;;24.50;47.21;99374.30;129989;1089;113791;-67
2021/08/03 11:02:04;;;;;;;15.95;3.58;;;;;;;24.54;46.28;99370.43;130076;1089;22589;-66
2021/08/03 11:04:43;;;;;;;5.35;2.73;;;;;;;24.58;46.00;99376.92;130014;1090;114075;-66
2021/08/03 11:07:27;;;;;;;4.60;2.73;;;;;;;24.61;45.59;99361.48;130122;1089;22618;-65
2021/08/03 11:09:59;;;;;;;3.85;2.88;;;;;;;24.65;47.25;99359.61;130122;1089;23668;-65
2021/08/03 11:12:51;;;;;;;4.35;3.05;;;;;;;24.73;46.97;99366.98;129994;1090;113938;-66
2021/08/03 11:15:23;;;;;;;43.28;5.15;;;;;;;24.80;46.99;99371.96;130106;1090;22709;-66
2021/08/03 11:18:02;;;;;;;7.20;3.45;;;;;;;24.86;46.32;99362.16;129998;1089;114563;-66
2021/08/03 11:20:41;;;;;;;5.15;2.33;;;;;;;24.95;45.56;99355.30;130102;1090;22742;-66
2021/08/03 11:23:14;;;;;;;4.45;3.05;;;;;;;24.99;45.02;99361.76;130049;1090;113973;-66
2021/08/03 11:25:45;;;;;;;7.40;2.80;;;;;;;25.01;45.19;99358.61;130086;1090;23207;-66
2021/08/03 11:28:15;;;;;;;3.13;2.83;;;;;;;25.02;45.62;99354.66;130115;1089;23339;-66
2021/08/03 11:30:45;;;;;;;4.45;2.93;;;;;;;25.03;45.81;99352.69;129997;1090;114277;-66
2021/08/03 11:33:16;;;;;;;8.63;3.00;;;;;;;25.03;46.35;99347.11;130107;1090;22702;-66
2021/08/03 11:35:44;;;;;;;10.93;3.05;;;;;;;25.03;46.19;99352.69;129991;1089;114167;-66
2021/08/03 11:38:19;;;;;;;6.13;2.70;;;;;;;25.03;45.45;99350.70;130133;1090;22702;-66
2021/08/03 11:40:48;;;;;;;7.90;2.83;;;;;;;25.00;45.26;99349.44;126673;1090;114048;-65
2021/08/03 11:43:17;;;;;;;9.15;3.13;;;;;;;24.99;45.38;99349.80;130083;1090;22694;-66
2021/08/03 11:45:46;;;;;;;5.83;3.00;;;;;;;24.97;45.83;99344.58;130130;1090;22482;-66
2021/08/03 11:48:22;;;;;;;6.93;3.28;;;;;;;24.96;45.42;99353.30;130020;1089;113645;-66